Time;durP1;ratioP1;P1;durP2;ratioP2;P2;SDS_P1;SDS_P2;PMS_P1;PMS_P2;Temp;Humidity;BMP_temperature;BMP_pressure;BME280_temperature;BME280_humidity;BME280_pressure;Samples;Min_cycle;Max_cycle;Signal;HPM_P1;HPM_P2
2022/08/21 00:02:15;;;;;;;1.00;0.90;;;24.70;52.40;;;;;;5128928;27;45315;-72
2022/08/21 00:04:41;;;;;;;1.20;0.93;;;24.70;52.40;;;;;;5129055;27;45333;-72
2022/08/21 00:07:08;;;;;;;1.00;0.85;;;24.70;52.50;;;;;;5138162;27;46769;-72
2022/08/21 00:09:35;;;;;;;0.90;0.85;;;24.70;52.40;;;;;;5149424;27;45187;-72
2022/08/21 00:12:02;;;;;;;0.80;0.80;;;24.70;52.40;;;;;;5149573;27;45287;-72
2022/08/21 00:14:31;;;;;;;1.77;1.00;;;24.70;52.40;;;;;;5149735;27;45289;-72
2022/08/21 00:16:58;;;;;;;2.38;1.00;;;24.70;52.40;;;;;;5149344;27;46659;-72
2022/08/21 00:19:24;;;;;;;0.80;0.80;;;24.70;52.40;;;;;;5149248;27;45188;-73
2022/08/21 00:21:51;;;;;;;1.02;0.95;;;24.70;53.10;;;;;;5149445;27;45146;-73
2022/08/21 00:24:18;;;;;;;0.73;0.70;;;24.70;52.50;;;;;;5149502;27;45216;-72
2022/08/21 00:26:45;;;;;;;1.20;0.90;;;24.60;52.50;;;;;;5149255;27;46729;-72
2022/08/21 00:29:13;;;;;;;1.08;0.80;;;24.60;52.40;;;;;;5161391;27;45219;-72
2022/08/21 00:31:41;;;;;;;0.80;0.80;;;24.60;52.40;;;;;;5169701;27;45195;-71
2022/08/21 00:34:08;;;;;;;0.88;0.88;;;24.50;52.50;;;;;;5169919;27;45343;-72
2022/08/21 00:36:35;;;;;;;0.73;0.73;;;24.60;52.50;;;;;;5169768;27;46809;-72
2022/08/21 00:39:02;;;;;;;0.70;0.70;;;24.50;52.50;;;;;;5169981;27;45214;-72
2022/08/21 00:41:29;;;;;;;1.17;0.80;;;24.50;53.10;;;;;;5170133;27;45203;-72
2022/08/21 00:43:56;;;;;;;0.80;0.80;;;24.50;52.50;;;;;;5170249;27;45247;-73
2022/08/21 00:46:23;;;;;;;0.85;0.70;;;24.50;52.50;;;;;;5169850;27;46667;-72
2022/08/21 00:48:51;;;;;;;0.75;0.75;;;24.50;52.50;;;;;;5169947;27;45319;-73
2022/08/21 00:51:22;;;;;;;0.90;0.90;;;24.50;52.50;;;;;;5170141;27;45251;-73
2022/08/21 00:53:50;;;;;;;0.90;0.88;;;24.50;52.50;;;;;;5170463;27;45334;-72
2022/08/21 00:56:16;;;;;;;1.05;0.93;;;24.50;52.90;;;;;;5169795;27;46656;-72
2022/08/21 00:58:43;;;;;;;0.80;0.80;;;24.50;52.60;;;;;;5169694;27;45216;-72
2022/08/21 01:01:10;;;;;;;0.70;0.70;;;24.40;52.50;;;;;;5170262;27;45182;-72
2022/08/21 01:03:37;;;;;;;0.98;0.93;;;24.40;53.10;;;;;;5170148;27;45161;-72
2022/08/21 01:06:06;;;;;;;1.20;0.90;;;24.40;52.60;;;;;;5169738;27;46400;-72
2022/08/21 01:08:33;;;;;;;0.90;0.90;;;24.40;52.60;;;;;;5170275;27;45381;-72
2022/08/21 01:11:00;;;;;;;0.80;0.80;;;24.40;52.60;;;;;;5173802;27;45195;-72
2022/08/21 01:13:27;;;;;;;0.90;0.90;;;24.40;52.50;;;;;;5173799;27;45443;-72
2022/08/21 01:15:56;;;;;;;0.80;0.80;;;24.40;52.50;;;;;;5173287;27;45327;-72
2022/08/21 01:18:23;;;;;;;0.80;0.80;;;24.40;52.60;;;;;;5172947;27;45289;-71
2022/08/21 01:21:11;;;;;;;1.00;0.90;;;24.30;52.40;;;;;;5172683;27;45128;-72
2022/08/21 01:23:38;;;;;;;0.95;0.88;;;24.30;52.50;;;;;;5173538;27;45418;-72
2022/08/21 01:26:05;;;;;;;1.42;0.80;;;24.30;52.60;;;;;;5172439;27;45254;-72
2022/08/21 01:28:34;;;;;;;0.80;0.80;;;24.30;52.40;;;;;;5166545;27;45275;-72
2022/08/21 01:31:01;;;;;;;1.50;0.85;;;24.30;52.50;;;;;;5167169;27;45282;-72
2022/08/21 01:33:28;;;;;;;0.93;0.80;;;24.30;52.50;;;;;;5173426;27;45333;-72
2022/08/21 01:35:55;;;;;;;0.75;0.75;;;24.20;52.50;;;;;;5173018;27;45611;-72
2022/08/21 01:38:24;;;;;;;1.15;0.90;;;24.20;52.70;;;;;;5172936;27;45330;-72
2022/08/21 01:40:51;;;;;;;0.85;0.80;;;24.20;52.60;;;;;;5173190;27;45122;-73
2022/08/21 01:43:17;;;;;;;0.80;0.80;;;24.10;53.20;;;;;;5173234;27;45454;-72
2022/08/21 01:45:44;;;;;;;0.70;0.70;;;24.10;52.60;;;;;;5172848;27;45304;-72
2022/08/21 01:48:11;;;;;;;0.82;0.77;;;24.10;52.60;;;;;;5172775;27;45309;-72
2022/08/21 01:50:38;;;;;;;0.73;0.73;;;24.10;52.70;;;;;;5172987;27;45224;-72
2022/08/21 01:53:05;;;;;;;1.33;0.90;;;24.00;52.70;;;;;;5173144;27;45187;-73
2022/08/21 01:55:33;;;;;;;1.05;1.00;;;24.00;52.70;;;;;;5172771;27;46411;-72
2022/08/21 01:58:00;;;;;;;1.13;1.00;;;24.00;52.60;;;;;;5172568;27;45305;-72
2022/08/21 02:00:27;;;;;;;0.93;0.93;;;24.00;52.70;;;;;;5172656;27;45140;-72
2022/08/21 02:02:54;;;;;;;0.75;0.75;;;23.90;52.80;;;;;;5170192;27;45215;-72
2022/08/21 02:05:21;;;;;;;1.83;0.90;;;23.90;52.70;;;;;;5172569;27;46386;-73
2022/08/21 02:07:52;;;;;;;1.13;1.02;;;23.90;52.90;;;;;;5157093;27;45145;-72
2022/08/21 02:10:20;;;;;;;0.90;0.90;;;23.90;53.40;;;;;;5151625;27;45184;-72
2022/08/21 02:12:49;;;;;;;0.82;0.82;;;23.90;52.70;;;;;;5151063;27;45103;-72
2022/08/21 02:15:16;;;;;;;0.85;0.85;;;23.90;52.80;;;;;;5150926;27;45349;-72
2022/08/21 02:17:44;;;;;;;0.90;0.80;;;23.90;52.70;;;;;;5151389;27;45260;-72
2022/08/21 02:20:18;;;;;;;0.90;0.90;;;23.90;52.70;;;;;;5150256;27;45232;-72
2022/08/21 02:22:45;;;;;;;0.80;0.80;;;23.90;53.40;;;;;;5151557;27;45457;-72
2022/08/21 02:25:12;;;;;;;1.65;1.00;;;23.90;52.60;;;;;;5151282;27;46319;-72
2022/08/21 02:27:40;;;;;;;0.85;0.85;;;23.80;53.30;;;;;;5151092;27;45272;-72
2022/08/21 02:30:10;;;;;;;0.82;0.82;;;23.80;52.70;;;;;;5164248;27;45355;-73
2022/08/21 02:32:36;;;;;;;0.90;0.90;;;23.80;52.70;;;;;;5151395;27;45179;-72
2022/08/21 02:35:04;;;;;;;1.13;1.02;;;23.80;52.70;;;;;;5150693;27;45416;-73
2022/08/21 02:37:31;;;;;;;1.35;1.00;;;23.70;52.70;;;;;;5150576;27;45303;-72
2022/08/21 02:39:57;;;;;;;1.92;0.90;;;23.80;52.70;;;;;;5151103;27;45240;-72
2022/08/21 02:42:24;;;;;;;0.95;0.70;;;23.80;52.60;;;;;;5151224;27;45432;-73
2022/08/21 02:44:51;;;;;;;0.80;0.80;;;23.70;53.30;;;;;;5150748;27;45491;-72
2022/08/21 02:47:19;;;;;;;2.25;0.80;;;23.70;52.70;;;;;;5150798;27;45309;-72
2022/08/21 02:49:46;;;;;;;1.25;0.90;;;23.70;52.60;;;;;;5151115;27;45367;-72
2022/08/21 02:52:14;;;;;;;1.85;1.13;;;23.70;52.70;;;;;;5151002;27;45418;-72
2022/08/21 02:54:41;;;;;;;0.80;0.80;;;23.70;52.70;;;;;;5150680;27;45295;-72
2022/08/21 02:57:07;;;;;;;1.75;0.90;;;23.70;52.80;;;;;;5150774;27;45142;-72
2022/08/21 02:59:34;;;;;;;0.82;0.82;;;23.70;52.70;;;;;;5150766;27;45275;-73
2022/08/21 03:02:02;;;;;;;1.15;0.95;;;23.70;52.70;;;;;;5150130;27;45300;-72
2022/08/21 03:04:30;;;;;;;0.70;0.70;;;23.70;52.70;;;;;;5150642;27;45295;-72
2022/08/21 03:06:57;;;;;;;1.88;0.80;;;23.60;52.70;;;;;;5142661;27;45260;-72
2022/08/21 03:09:23;;;;;;;2.50;0.93;;;23.60;52.60;;;;;;5129929;27;45194;-72
2022/08/21 03:11:51;;;;;;;0.88;0.88;;;23.60;52.60;;;;;;5129972;27;45399;-72
2022/08/21 03:14:17;;;;;;;1.00;0.88;;;23.60;52.60;;;;;;5129571;27;45294;-72
2022/08/21 03:16:44;;;;;;;1.15;0.93;;;23.60;52.70;;;;;;5129657;27;45202;-73
2022/08/21 03:19:11;;;;;;;0.90;0.90;;;23.50;52.60;;;;;;5150598;27;45109;-73
2022/08/21 03:21:40;;;;;;;1.02;0.75;;;23.50;52.70;;;;;;5150670;27;45205;-72
2022/08/21 03:24:08;;;;;;;0.82;0.82;;;23.50;52.60;;;;;;5150283;27;46711;-73
2022/08/21 03:26:35;;;;;;;1.02;0.80;;;23.50;52.80;;;;;;5150446;27;45144;-73
2022/08/21 03:29:02;;;;;;;0.90;0.90;;;23.50;52.70;;;;;;5139756;27;45181;-73
2022/08/21 03:31:30;;;;;;;0.95;0.82;;;23.50;52.70;;;;;;5167262;27;45489;-73
2022/08/21 03:33:57;;;;;;;1.45;0.80;;;23.50;52.70;;;;;;5171076;27;46632;-73
2022/08/21 03:36:24;;;;;;;0.90;0.90;;;23.50;52.70;;;;;;5170876;27;45302;-72
2022/08/21 03:38:52;;;;;;;0.65;0.60;;;23.40;53.20;;;;;;5171191;27;45141;-73
2022/08/21 03:41:19;;;;;;;1.10;0.60;;;23.40;52.70;;;;;;5171260;27;45407;-73
2022/08/21 03:43:46;;;;;;;0.70;0.70;;;23.40;52.70;;;;;;5170864;27;45245;-71
2022/08/21 03:46:13;;;;;;;1.42;1.00;;;23.40;52.70;;;;;;5170725;27;45417;-71
2022/08/21 03:48:40;;;;;;;0.80;0.80;;;23.40;52.80;;;;;;5170334;27;45286;-72
2022/08/21 03:51:07;;;;;;;0.90;0.90;;;23.40;52.80;;;;;;5171317;27;45232;-73
2022/08/21 03:53:34;;;;;;;0.80;0.80;;;23.40;52.80;;;;;;5170740;27;46661;-72
2022/08/21 03:56:03;;;;;;;1.00;0.85;;;23.30;52.60;;;;;;5168160;27;45354;-72
2022/08/21 03:58:30;;;;;;;1.45;0.82;;;23.30;52.70;;;;;;5170950;27;45304;-73
2022/08/21 04:00:58;;;;;;;1.08;0.80;;;23.30;52.80;;;;;;5170944;27;45121;-73
2022/08/21 04:03:25;;;;;;;1.65;0.85;;;23.30;52.80;;;;;;5170158;27;46658;-73
2022/08/21 04:05:51;;;;;;;0.95;0.95;;;23.30;52.70;;;;;;5170634;27;45248;-73
2022/08/21 04:08:19;;;;;;;0.60;0.60;;;23.30;52.70;;;;;;5151112;27;45379;-73
2022/08/21 04:10:47;;;;;;;1.48;1.38;;;23.20;52.70;;;;;;5149878;27;45165;-73
2022/08/21 04:13:15;;;;;;;0.93;0.93;;;23.20;52.70;;;;;;5149420;27;45464;-73
2022/08/21 04:15:42;;;;;;;0.70;0.70;;;23.20;52.70;;;;;;5149266;27;45322;-73
2022/08/21 04:18:10;;;;;;;0.70;0.70;;;23.20;52.70;;;;;;5149534;27;45298;-73
2022/08/21 04:20:36;;;;;;;0.88;0.80;;;23.20;52.70;;;;;;5149556;27;45302;-73
2022/08/21 04:23:03;;;;;;;1.27;0.93;;;23.10;52.80;;;;;;5146492;27;45125;-73
2022/08/21 04:25:30;;;;;;;0.82;0.82;;;23.10;52.80;;;;;;5149320;27;45317;-73
2022/08/21 04:27:57;;;;;;;1.05;0.80;;;23.10;52.70;;;;;;5150889;27;45396;-73
2022/08/21 04:30:26;;;;;;;0.95;0.80;;;23.10;52.90;;;;;;5160799;27;45393;-73
2022/08/21 04:32:53;;;;;;;0.95;0.88;;;23.10;52.80;;;;;;5148310;27;46618;-72
2022/08/21 04:35:22;;;;;;;0.88;0.75;;;23.10;52.70;;;;;;5149181;27;45163;-73
2022/08/21 04:37:49;;;;;;;1.00;1.00;;;23.10;52.70;;;;;;5149094;27;45294;-73
2022/08/21 04:40:16;;;;;;;0.70;0.70;;;23.10;52.70;;;;;;5149312;27;45217;-73
2022/08/21 04:42:45;;;;;;;0.82;0.82;;;23.10;52.70;;;;;;5149175;27;45260;-73
2022/08/21 04:45:17;;;;;;;1.00;1.00;;;23.10;52.70;;;;;;5148379;27;45363;-73
2022/08/21 04:47:45;;;;;;;0.85;0.85;;;23.10;52.70;;;;;;5149092;27;45172;-73
2022/08/21 04:50:12;;;;;;;0.85;0.70;;;23.10;52.70;;;;;;5149284;27;45415;-73
2022/08/21 04:52:39;;;;;;;0.80;0.80;;;23.00;52.60;;;;;;5148887;27;46288;-73
2022/08/21 04:55:07;;;;;;;0.80;0.80;;;23.10;52.80;;;;;;5148881;27;45194;-73
2022/08/21 04:57:34;;;;;;;1.00;0.90;;;23.10;52.70;;;;;;5148931;27;45309;-73
2022/08/21 05:00:01;;;;;;;0.98;0.88;;;23.00;52.60;;;;;;5149337;27;45304;-73
2022/08/21 05:02:28;;;;;;;0.80;0.80;;;23.00;52.60;;;;;;5148745;27;46427;-73
2022/08/21 05:04:56;;;;;;;1.38;0.70;;;23.00;52.70;;;;;;5148806;27;45373;-73
2022/08/21 05:07:24;;;;;;;1.17;0.88;;;23.00;52.60;;;;;;5137093;27;45206;-73
2022/08/21 05:09:51;;;;;;;1.67;0.88;;;23.00;52.70;;;;;;5149136;27;45479;-73
2022/08/21 05:12:18;;;;;;;0.90;0.90;;;23.00;52.70;;;;;;5148638;27;46282;-73
2022/08/21 05:14:45;;;;;;;0.80;0.80;;;22.90;52.70;;;;;;5148721;27;45324;-72
2022/08/21 05:17:12;;;;;;;0.60;0.60;;;22.90;52.60;;;;;;5146175;27;45159;-72
2022/08/21 05:19:39;;;;;;;0.75;0.70;;;22.90;52.70;;;;;;5148916;27;45174;-72
2022/08/21 05:22:09;;;;;;;1.10;1.00;;;22.90;52.80;;;;;;5147749;27;45807;-73
2022/08/21 05:24:35;;;;;;;0.93;0.93;;;22.90;52.60;;;;;;5148604;27;45217;-73
2022/08/21 05:27:03;;;;;;;0.80;0.80;;;22.90;52.70;;;;;;5148645;27;45193;-72
2022/08/21 05:29:31;;;;;;;0.80;0.80;;;22.90;52.70;;;;;;5137418;27;45457;-73
2022/08/21 05:31:57;;;;;;;0.73;0.70;;;22.90;52.70;;;;;;5169407;27;45294;-73
2022/08/21 05:34:24;;;;;;;0.95;0.70;;;22.90;52.70;;;;;;5169339;27;45394;-73
2022/08/21 05:36:51;;;;;;;0.93;0.93;;;23.00;52.70;;;;;;5169211;27;45328;-73
2022/08/21 05:39:19;;;;;;;0.80;0.80;;;23.00;52.70;;;;;;5169680;27;45128;-73
2022/08/21 05:41:47;;;;;;;1.00;0.90;;;23.00;52.70;;;;;;5169083;27;46719;-73
2022/08/21 05:44:14;;;;;;;0.85;0.85;;;23.00;52.70;;;;;;5169243;27;45293;-73
2022/08/21 05:46:41;;;;;;;0.75;0.75;;;23.00;52.60;;;;;;5169353;27;45319;-73
2022/08/21 05:49:08;;;;;;;0.75;0.70;;;23.00;52.60;;;;;;5169490;27;45386;-73
2022/08/21 05:51:35;;;;;;;1.10;0.80;;;23.00;52.60;;;;;;5169144;27;45406;-73
2022/08/21 05:54:01;;;;;;;0.70;0.70;;;23.00;52.70;;;;;;5169237;27;45252;-73
2022/08/21 05:56:30;;;;;;;0.98;0.80;;;23.00;52.70;;;;;;5172660;27;45274;-73
2022/08/21 05:58:56;;;;;;;0.80;0.80;;;23.00;52.60;;;;;;5173005;27;45393;-73
2022/08/21 06:01:23;;;;;;;1.08;0.80;;;23.00;52.60;;;;;;5172664;27;45175;-73
2022/08/21 06:03:50;;;;;;;1.10;1.02;;;23.00;52.70;;;;;;5172608;27;45217;-72
2022/08/21 06:06:17;;;;;;;0.82;0.82;;;23.00;52.60;;;;;;5169632;27;45316;-71
2022/08/21 06:08:44;;;;;;;1.10;0.80;;;23.00;52.60;;;;;;5151438;27;45240;-73
2022/08/21 06:11:11;;;;;;;0.93;0.80;;;23.00;52.60;;;;;;5151255;27;45461;-73
2022/08/21 06:13:40;;;;;;;0.90;0.90;;;23.00;53.30;;;;;;5151457;27;45203;-73
2022/08/21 06:16:08;;;;;;;2.25;1.02;;;23.00;53.00;;;;;;5151616;27;44723;-73
2022/08/21 06:18:35;;;;;;;4.07;1.52;;;23.00;53.10;;;;;;5151592;27;45402;-73
2022/08/21 06:21:02;;;;;;;0.90;0.90;;;23.00;53.20;;;;;;5151187;27;46408;-73
2022/08/21 06:23:29;;;;;;;1.58;1.13;;;23.00;53.30;;;;;;5151186;27;45177;-73
2022/08/21 06:25:56;;;;;;;0.90;0.90;;;23.00;53.40;;;;;;5151519;27;45214;-74
2022/08/21 06:28:23;;;;;;;4.72;1.42;;;23.00;53.40;;;;;;5156500;27;45244;-74
2022/08/21 06:30:51;;;;;;;3.97;1.80;;;23.00;53.40;;;;;;5158692;27;45338;-74
2022/08/21 06:33:18;;;;;;;2.58;1.40;;;23.00;53.90;;;;;;5151105;27;45187;-74
2022/08/21 06:35:44;;;;;;;1.75;1.17;;;22.90;53.80;;;;;;5151318;27;45176;-74
2022/08/21 06:38:11;;;;;;;1.70;1.60;;;22.90;54.40;;;;;;5150874;27;45383;-74
2022/08/21 06:40:40;;;;;;;2.03;1.40;;;22.90;53.80;;;;;;5151204;27;47970;-74
2022/08/21 06:43:07;;;;;;;6.10;1.65;;;22.80;54.00;;;;;;5151161;27;45305;-74
2022/08/21 06:45:34;;;;;;;2.97;1.40;;;22.80;54.20;;;;;;5151159;27;45203;-73
2022/08/21 06:48:03;;;;;;;4.60;1.40;;;22.80;54.10;;;;;;5150991;27;45445;-73
2022/08/21 06:50:30;;;;;;;4.38;1.77;;;22.80;54.30;;;;;;5150770;27;46692;-73
2022/08/21 06:53:01;;;;;;;1.67;1.40;;;22.80;54.10;;;;;;5150064;27;45322;-74
2022/08/21 06:55:28;;;;;;;1.92;1.27;;;22.80;54.20;;;;;;5150226;27;45243;-73
2022/08/21 06:57:55;;;;;;;3.45;1.50;;;22.80;54.00;;;;;;5151445;27;45299;-73
2022/08/21 07:00:22;;;;;;;2.03;1.30;;;22.80;54.00;;;;;;5150863;27;45313;-73
2022/08/21 07:02:48;;;;;;;1.52;1.30;;;22.80;53.90;;;;;;5150527;27;45190;-73
2022/08/21 07:05:17;;;;;;;1.13;0.90;;;22.80;53.80;;;;;;5150868;27;45199;-73
2022/08/21 07:07:44;;;;;;;2.30;1.60;;;22.90;53.70;;;;;;5129325;27;45429;-73
2022/08/21 07:10:10;;;;;;;1.60;1.23;;;22.90;53.50;;;;;;5129511;27;45735;-73
2022/08/21 07:12:37;;;;;;;1.10;1.00;;;22.90;53.30;;;;;;5129771;27;45172;-73
2022/08/21 07:15:05;;;;;;;1.40;1.30;;;23.00;53.40;;;;;;5127110;27;45222;-73
2022/08/21 07:17:32;;;;;;;2.42;1.10;;;23.00;53.30;;;;;;5130007;27;45203;-73
2022/08/21 07:19:59;;;;;;;1.85;1.23;;;23.00;53.30;;;;;;5129482;27;46709;-73
2022/08/21 07:22:28;;;;;;;1.85;1.00;;;23.00;53.10;;;;;;5129607;27;45317;-73
2022/08/21 07:24:55;;;;;;;1.67;1.00;;;23.00;53.10;;;;;;5129939;27;45259;-73
2022/08/21 07:27:21;;;;;;;2.03;1.20;;;23.10;53.10;;;;;;5129936;27;45312;-73
2022/08/21 07:29:48;;;;;;;0.90;0.90;;;23.10;53.00;;;;;;5128179;27;47026;-73
2022/08/21 07:32:15;;;;;;;1.13;0.90;;;23.10;53.00;;;;;;5122360;27;45528;-73
2022/08/21 07:34:42;;;;;;;1.63;1.25;;;23.10;53.00;;;;;;5147447;27;45370;-72
2022/08/21 07:37:09;;;;;;;1.20;1.10;;;23.10;53.00;;;;;;5135987;27;45390;-72
2022/08/21 07:39:37;;;;;;;1.35;1.20;;;23.10;53.20;;;;;;5148427;27;45426;-73
2022/08/21 07:42:04;;;;;;;1.23;1.00;;;23.10;53.20;;;;;;5164986;27;45334;-73
2022/08/21 07:44:31;;;;;;;2.33;1.50;;;23.10;53.80;;;;;;5171155;27;45306;-73
2022/08/21 07:46:58;;;;;;;1.73;1.27;;;23.10;53.30;;;;;;5156285;27;45297;-73
2022/08/21 07:49:25;;;;;;;3.20;1.25;;;23.10;53.40;;;;;;5135682;27;45660;-73
2022/08/21 07:51:52;;;;;;;2.25;1.10;;;23.10;53.30;;;;;;5147990;27;45299;-74
2022/08/21 07:54:18;;;;;;;2.92;1.10;;;23.20;53.20;;;;;;5161567;27;45312;-73
2022/08/21 07:56:48;;;;;;;1.42;1.27;;;23.20;53.30;;;;;;5168111;27;45402;-73
2022/08/21 07:59:15;;;;;;;2.13;1.33;;;23.20;53.40;;;;;;5149347;27;46688;-73
2022/08/21 08:01:42;;;;;;;1.58;1.48;;;23.20;53.40;;;;;;5146505;27;45206;-74
2022/08/21 08:04:09;;;;;;;2.78;1.23;;;23.20;53.20;;;;;;5157188;27;45353;-73
2022/08/21 08:06:35;;;;;;;1.52;1.42;;;23.20;53.10;;;;;;5170742;27;45308;-73
2022/08/21 08:09:03;;;;;;;2.25;1.25;;;23.20;52.90;;;;;;5163061;27;46638;-73
2022/08/21 08:11:30;;;;;;;2.15;1.45;;;23.30;53.10;;;;;;5167996;27;45270;-71
2022/08/21 08:13:59;;;;;;;1.70;1.60;;;23.20;53.10;;;;;;5149898;27;45252;-71
2022/08/21 08:16:26;;;;;;;3.17;1.13;;;23.30;53.10;;;;;;5171295;27;45555;-71
2022/08/21 08:18:55;;;;;;;1.30;1.20;;;23.30;53.10;;;;;;5159784;27;46332;-71
2022/08/21 08:21:22;;;;;;;3.03;1.25;;;23.30;53.00;;;;;;5144063;27;45232;-71
2022/08/21 08:23:50;;;;;;;1.73;1.50;;;23.40;53.00;;;;;;5131281;27;45631;-72
2022/08/21 08:26:17;;;;;;;1.35;1.25;;;23.40;52.90;;;;;;5122482;27;45254;-71
2022/08/21 08:28:44;;;;;;;2.53;1.30;;;23.40;52.90;;;;;;5166519;27;47301;-71
2022/08/21 08:31:12;;;;;;;1.42;1.25;;;23.40;52.80;;;;;;5146957;27;45428;-70
2022/08/21 08:33:39;;;;;;;1.77;1.30;;;23.40;52.70;;;;;;5156157;27;45239;-71
2022/08/21 08:36:06;;;;;;;1.98;1.42;;;23.40;52.70;;;;;;5138527;27;45418;-71
2022/08/21 08:38:33;;;;;;;2.40;1.17;;;23.50;52.70;;;;;;5108105;27;46942;-72
2022/08/21 08:41:06;;;;;;;4.05;1.50;;;23.50;53.20;;;;;;5122857;27;45208;-72
2022/08/21 08:43:34;;;;;;;1.67;1.33;;;23.60;52.70;;;;;;5131424;27;45419;-73
2022/08/21 08:46:04;;;;;;;4.93;1.50;;;23.60;52.70;;;;;;5122843;27;45438;-72
2022/08/21 08:48:43;;;;;;;2.90;1.40;;;23.70;52.50;;;;;;5121316;27;46712;-72
2022/08/21 08:51:12;;;;;;;2.22;1.27;;;23.70;52.50;;;;;;5111604;27;45480;-73
2022/08/21 08:53:46;;;;;;;1.20;1.10;;;23.70;52.90;;;;;;5121453;27;45507;-74
2022/08/21 08:56:13;;;;;;;2.97;1.40;;;23.70;52.50;;;;;;5119450;27;45413;-73
2022/08/21 08:58:42;;;;;;;3.15;1.40;;;23.80;52.50;;;;;;5138143;27;45252;-74
2022/08/21 09:01:19;;;;;;;3.33;1.38;;;23.80;52.50;;;;;;5132257;27;45455;-74
2022/08/21 09:03:49;;;;;;;2.33;1.60;;;23.80;52.40;;;;;;5142030;27;44749;-73
2022/08/21 09:06:24;;;;;;;1.52;1.27;;;23.90;52.60;;;;;;5134071;27;45408;-73
2022/08/21 09:08:54;;;;;;;4.05;1.75;;;23.90;52.70;;;;;;5133642;27;46681;-73
2022/08/21 09:11:26;;;;;;;1.90;1.60;;;23.90;52.80;;;;;;5123232;27;44810;-73
2022/08/21 09:13:58;;;;;;;1.75;1.40;;;24.00;53.00;;;;;;5121345;27;44709;-73
2022/08/21 09:16:30;;;;;;;4.90;1.50;;;24.00;53.50;;;;;;5133029;27;45403;-73
2022/08/21 09:19:03;;;;;;;4.57;1.75;;;24.10;53.50;;;;;;5124939;27;46988;-74
2022/08/21 09:21:37;;;;;;;2.22;1.55;;;24.10;53.50;;;;;;5149239;27;45103;-73
2022/08/21 09:24:11;;;;;;;1.70;1.60;;;24.10;53.40;;;;;;5141450;27;45127;-74
2022/08/21 09:26:48;;;;;;;2.35;1.52;;;24.10;53.30;;;;;;5109127;27;45369;-74
2022/08/21 09:29:22;;;;;;;3.55;1.90;;;24.20;53.10;;;;;;5104804;27;46485;-74
2022/08/21 09:31:48;;;;;;;2.63;1.40;;;24.20;53.00;;;;;;5122680;27;45176;-74
2022/08/21 09:34:25;;;;;;;4.85;1.58;;;24.20;53.00;;;;;;5116435;27;45143;-74
2022/08/21 09:36:52;;;;;;;6.03;1.77;;;24.30;53.10;;;;;;5120817;27;45433;-74
2022/08/21 09:39:24;;;;;;;5.28;1.88;;;24.30;53.20;;;;;;5145178;27;46643;-74
2022/08/21 09:41:56;;;;;;;6.80;1.92;;;24.30;53.00;;;;;;5154178;27;45559;-74
2022/08/21 09:44:27;;;;;;;3.88;1.70;;;24.40;52.90;;;;;;5151684;27;45306;-72
2022/08/21 09:46:53;;;;;;;6.88;1.70;;;24.40;53.00;;;;;;5167449;27;45305;-73
2022/08/21 09:49:29;;;;;;;4.80;1.75;;;24.50;53.10;;;;;;5163463;27;45533;-73
2022/08/21 09:51:56;;;;;;;3.92;1.52;;;24.50;52.70;;;;;;5172932;27;45332;-73
2022/08/21 09:54:25;;;;;;;3.80;1.90;;;24.50;52.40;;;;;;5174525;27;45266;-73
2022/08/21 09:59:38;;;;;;;2.63;1.58;;;24.60;52.20;;;;;;5172895;27;45313;-73
2022/08/21 10:02:22;;;;;;;3.80;1.90;;;24.70;52.10;;;;;;5172019;27;45347;-73
2022/08/21 10:04:52;;;;;;;3.65;1.90;;;24.70;52.10;;;;;;5171951;27;45308;-72
2022/08/21 10:07:21;;;;;;;4.07;2.08;;;24.70;52.00;;;;;;5142356;27;45223;-74
2022/08/21 10:09:58;;;;;;;4.18;1.70;;;24.80;51.60;;;;;;5151349;27;46576;-73
2022/08/21 10:12:26;;;;;;;2.03;1.83;;;24.80;51.80;;;;;;5151258;27;45297;-73
2022/08/21 10:14:56;;;;;;;2.78;1.70;;;24.90;51.70;;;;;;5151601;27;45323;-73
2022/08/21 10:17:27;;;;;;;2.80;1.70;;;24.90;52.40;;;;;;5151682;27;45222;-73
2022/08/21 10:19:57;;;;;;;4.20;1.65;;;25.00;52.60;;;;;;5151267;27;45456;-73
2022/08/21 10:22:31;;;;;;;10.57;2.28;;;25.00;51.70;;;;;;5151093;27;45317;-73
2022/08/21 10:25:02;;;;;;;3.72;1.80;;;25.00;51.00;;;;;;5151181;27;45308;-73
2022/08/21 10:27:33;;;;;;;3.92;1.92;;;25.10;50.50;;;;;;5151609;27;45244;-73
2022/08/21 10:30:03;;;;;;;3.50;1.80;;;25.10;50.40;;;;;;5164051;27;46272;-73
2022/08/21 10:32:51;;;;;;;1.70;1.60;;;25.20;50.50;;;;;;5150912;27;45322;-73
2022/08/21 10:35:23;;;;;;;4.68;1.48;;;25.20;51.50;;;;;;5139184;27;45235;-73
2022/08/21 10:38:17;;;;;;;3.55;1.83;;;25.20;51.50;;;;;;5135808;27;45130;-73
2022/08/21 10:40:48;;;;;;;1.48;1.25;;;25.30;51.80;;;;;;5129878;27;45489;-73
2022/08/21 10:43:20;;;;;;;4.75;1.83;;;25.40;51.70;;;;;;5129135;27;45378;-73
2022/08/21 10:45:53;;;;;;;3.03;1.60;;;25.40;51.50;;;;;;5130347;27;45221;-72
2022/08/21 10:48:25;;;;;;;2.78;1.60;;;25.40;51.90;;;;;;5129830;27;45290;-72
2022/08/21 10:50:55;;;;;;;4.28;1.95;;;25.50;52.90;;;;;;5129901;27;46332;-73
2022/08/21 10:53:40;;;;;;;6.18;1.92;;;25.60;54.50;;;;;;5129480;27;45261;-73
2022/08/21 10:56:18;;;;;;;2.17;1.52;;;25.60;54.00;;;;;;5130069;27;45209;-73
2022/08/21 10:58:49;;;;;;;1.67;1.58;;;25.70;52.40;;;;;;5130238;27;45367;-73
2022/08/21 11:01:18;;;;;;;4.10;1.90;;;25.80;52.70;;;;;;5129852;27;46614;-73
2022/08/21 11:03:45;;;;;;;2.78;1.50;;;25.90;52.80;;;;;;5128988;27;45297;-72
2022/08/21 11:06:15;;;;;;;4.43;1.80;;;25.90;53.10;;;;;;5128133;27;45268;-72
2022/08/21 11:08:43;;;;;;;3.00;1.60;;;26.00;53.20;;;;;;5109537;27;45185;-72
2022/08/21 11:11:13;;;;;;;3.05;1.92;;;26.10;52.90;;;;;;5108742;27;45376;-72
2022/08/21 11:13:42;;;;;;;3.60;1.45;;;26.10;51.70;;;;;;5108800;27;45271;-73
2022/08/21 11:16:15;;;;;;;4.43;1.70;;;26.20;51.20;;;;;;5108822;27;45494;-72
2022/08/21 11:18:44;;;;;;;1.60;1.50;;;26.30;51.70;;;;;;5109144;27;45124;-73
2022/08/21 11:21:21;;;;;;;3.05;1.70;;;26.30;51.60;;;;;;5108765;27;46691;-72
2022/08/21 11:23:51;;;;;;;3.67;1.50;;;26.40;52.10;;;;;;5108474;27;45299;-72
2022/08/21 11:26:20;;;;;;;2.45;1.70;;;26.50;52.10;;;;;;5108833;27;45220;-73
2022/08/21 11:28:48;;;;;;;2.20;1.30;;;26.60;52.50;;;;;;5117426;27;45327;-72
2022/08/21 11:31:28;;;;;;;3.47;1.50;;;26.60;51.00;;;;;;5112289;27;45574;-73
2022/08/21 11:34:03;;;;;;;2.65;1.50;;;26.70;50.40;;;;;;5108350;27;45351;-72
2022/08/21 11:36:35;;;;;;;2.58;1.48;;;26.80;50.20;;;;;;5112419;27;45329;-73
2022/08/21 11:39:07;;;;;;;5.18;1.70;;;26.90;50.20;;;;;;5129501;27;45390;-73
2022/08/21 11:41:37;;;;;;;2.95;1.38;;;26.90;50.00;;;;;;5129174;27;45227;-73
2022/08/21 11:44:10;;;;;;;2.28;1.60;;;27.00;49.60;;;;;;5128927;27;45398;-72
2022/08/21 11:46:40;;;;;;;5.97;1.75;;;27.00;50.10;;;;;;5129174;27;45221;-72
2022/08/21 11:49:22;;;;;;;3.78;1.70;;;27.10;51.10;;;;;;5129372;27;45495;-73
2022/08/21 11:51:54;;;;;;;2.97;2.00;;;27.20;50.90;;;;;;5128848;27;46282;-73
2022/08/21 11:54:24;;;;;;;2.80;1.85;;;27.30;50.70;;;;;;5128629;27;45193;-73
2022/08/21 11:56:54;;;;;;;3.17;1.73;;;27.30;50.50;;;;;;5129136;27;45391;-73
2022/08/21 11:59:28;;;;;;;4.65;1.60;;;27.40;48.80;;;;;;5129170;27;45122;-73
2022/08/21 12:01:56;;;;;;;3.33;1.15;;;27.50;48.40;;;;;;5128394;27;45371;-73
2022/08/21 12:04:26;;;;;;;1.67;1.38;;;27.50;48.10;;;;;;5128826;27;45303;-73
2022/08/21 12:06:54;;;;;;;3.47;1.52;;;27.50;48.00;;;;;;5128748;27;45274;-73
2022/08/21 12:09:34;;;;;;;3.42;1.70;;;27.50;48.30;;;;;;5128589;27;45388;-72
2022/08/21 12:12:03;;;;;;;1.80;1.30;;;27.60;49.70;;;;;;5128595;27;45701;-72
2022/08/21 12:14:37;;;;;;;2.42;1.50;;;27.70;50.10;;;;;;5127491;27;45229;-72
2022/08/21 12:17:05;;;;;;;1.80;1.42;;;27.80;50.70;;;;;;5127897;27;45128;-72
2022/08/21 12:19:32;;;;;;;2.95;1.50;;;27.90;49.70;;;;;;5128448;27;45305;-72
2022/08/21 12:22:09;;;;;;;6.70;2.08;;;28.00;49.60;;;;;;5128073;27;45475;-72
2022/08/21 12:24:37;;;;;;;3.50;1.52;;;28.00;49.30;;;;;;5127953;27;45326;-72
2022/08/21 12:27:19;;;;;;;2.92;1.67;;;27.90;49.40;;;;;;5128562;27;45284;-72
2022/08/21 12:29:47;;;;;;;2.80;1.60;;;28.00;49.30;;;;;;5145208;27;45545;-73
2022/08/21 12:32:24;;;;;;;4.07;1.60;;;27.90;43.80;;;;;;5148810;27;46728;-72
2022/08/21 12:34:52;;;;;;;6.20;1.60;;;27.80;43.70;;;;;;5149110;27;45203;-73
2022/08/21 12:37:22;;;;;;;3.80;1.40;;;27.80;43.00;;;;;;5148837;27;45117;-72
2022/08/21 12:39:51;;;;;;;3.33;1.17;;;27.80;43.40;;;;;;5149175;27;45513;-73
2022/08/21 12:42:19;;;;;;;2.80;1.15;;;27.90;42.40;;;;;;5148762;27;47569;-73
2022/08/21 12:44:47;;;;;;;2.17;1.30;;;27.90;42.10;;;;;;5148484;27;45378;-72
2022/08/21 12:47:16;;;;;;;1.98;1.50;;;28.00;43.00;;;;;;5149107;27;45357;-73
2022/08/21 12:49:49;;;;;;;2.78;1.55;;;28.00;41.10;;;;;;5149186;27;45559;-73
2022/08/21 12:52:20;;;;;;;4.13;1.55;;;28.10;41.60;;;;;;5148728;27;45225;-72
2022/08/21 12:54:48;;;;;;;4.22;1.58;;;28.10;41.70;;;;;;5148112;27;45314;-73
2022/08/21 12:57:20;;;;;;;11.63;7.57;;;28.10;41.10;;;;;;5148985;27;45193;-72